createdAt,value
2023-05-10T00:04:37.137Z,14.80
2023-05-10T00:09:39.992Z,14.92
2023-05-10T00:14:42.749Z,14.85
2023-05-10T00:19:46.908Z,14.70
2023-05-10T00:24:49.675Z,14.77
2023-05-10T00:29:52.534Z,14.64
2023-05-10T00:34:57.075Z,14.60
2023-05-10T00:39:59.935Z,14.68
2023-05-10T00:45:03.683Z,14.78
2023-05-10T00:50:10.069Z,14.72
2023-05-10T00:55:13.941Z,14.67
2023-05-10T01:00:19.192Z,14.44
2023-05-10T01:05:23.878Z,14.27
2023-05-10T01:10:27.244Z,14.22
2023-05-10T01:15:30.093Z,14.29
2023-05-10T01:20:41.696Z,14.44
2023-05-10T01:26:26.625Z,14.32
2023-05-10T01:31:45.093Z,14.20
2023-05-10T01:36:54.475Z,14.16
2023-05-10T01:42:03.178Z,13.69
2023-05-10T01:47:10.691Z,13.95
2023-05-10T01:52:18.457Z,13.77
2023-05-10T01:57:23.995Z,13.55
2023-05-10T02:02:29.580Z,13.78
2023-05-10T02:07:35.176Z,13.92
2023-05-10T02:12:41.729Z,13.96
2023-05-10T02:17:45.315Z,13.84
2023-05-10T02:22:51.364Z,13.54
2023-05-10T02:27:56.519Z,13.42
2023-05-10T02:32:59.772Z,13.09
2023-05-10T02:38:04.462Z,13.28
2023-05-10T02:43:11.346Z,13.18
2023-05-10T02:48:14.195Z,13.23
2023-05-10T02:53:22.946Z,13.18
2023-05-10T02:58:26.347Z,12.92
2023-05-10T03:03:29.124Z,13.03
2023-05-10T03:08:33.513Z,13.03
2023-05-10T03:13:44.432Z,13.09
2023-05-10T03:18:56.829Z,13.10
2023-05-10T03:24:07.482Z,13.08
2023-05-10T03:29:13.376Z,13.18
2023-05-10T03:34:16.480Z,13.21
2023-05-10T03:39:22.231Z,13.19
2023-05-10T03:44:30.089Z,13.16
2023-05-10T03:49:33.186Z,13.10
2023-05-10T03:54:37.767Z,12.49
2023-05-10T03:59:41.422Z,12.71
2023-05-10T04:04:44.206Z,12.68
2023-05-10T04:09:49.580Z,12.64
2023-05-10T04:14:52.423Z,12.73
2023-05-10T04:19:55.689Z,12.59
2023-05-10T04:24:59.877Z,12.68
2023-05-10T04:30:03.143Z,12.56
2023-05-10T04:35:06.418Z,12.14
2023-05-10T04:40:11.925Z,11.57
2023-05-10T04:45:15.584Z,11.30
2023-05-10T04:50:18.839Z,11.48
2023-05-10T04:55:23.227Z,11.67
2023-05-10T05:00:27.182Z,11.71
2023-05-10T05:05:29.917Z,11.46
2023-05-10T05:10:34.050Z,11.59
2023-05-10T05:15:36.912Z,11.44
2023-05-10T05:20:39.665Z,11.77
2023-05-10T05:25:44.047Z,12.01
2023-05-10T05:30:47.021Z,11.91
2023-05-10T05:35:51.736Z,12.11
2023-05-10T05:40:55.967Z,12.00
2023-05-10T05:45:59.603Z,12.14
2023-05-10T05:51:02.611Z,12.00
2023-05-10T05:56:07.392Z,12.18
2023-05-10T06:01:10.207Z,12.27
2023-05-10T06:06:13.460Z,12.27
2023-05-10T06:11:17.620Z,12.00
2023-05-10T06:16:20.423Z,11.78
2023-05-10T06:21:23.357Z,11.75
2023-05-10T06:26:27.544Z,11.96
2023-05-10T06:31:30.343Z,12.02
2023-05-10T06:36:33.161Z,12.01
2023-05-10T06:41:37.463Z,12.03
2023-05-10T06:46:40.311Z,11.89
2023-05-10T06:51:43.237Z,11.55
2023-05-10T06:56:47.404Z,12.14
2023-05-10T07:01:50.279Z,12.14
2023-05-10T07:06:53.196Z,12.15
2023-05-10T07:11:58.263Z,12.59
2023-05-10T07:17:01.059Z,12.31
2023-05-10T07:22:03.948Z,12.28
2023-05-10T07:27:08.157Z,12.60
2023-05-10T07:32:11.045Z,12.77
2023-05-10T07:37:13.802Z,13.27
2023-05-10T07:42:17.956Z,13.46
2023-05-10T07:47:20.782Z,13.18
2023-05-10T07:52:23.595Z,13.26
2023-05-10T07:57:27.801Z,13.27
2023-05-10T08:02:30.758Z,13.00
2023-05-10T08:07:34.539Z,13.04
2023-05-10T08:12:38.770Z,13.49
2023-05-10T08:17:41.612Z,13.77
2023-05-10T08:22:44.448Z,13.65
2023-05-10T08:27:48.656Z,13.33
2023-05-10T08:32:51.455Z,13.59
2023-05-10T08:37:54.229Z,14.06
2023-05-10T08:43:06.557Z,14.38
2023-05-10T08:48:10.910Z,13.87
2023-05-10T08:53:15.091Z,14.29
2023-05-10T08:58:20.450Z,15.15
2023-05-10T09:03:23.257Z,15.86
2023-05-10T09:08:27.555Z,15.78
2023-05-10T09:13:32.120Z,15.07
2023-05-10T09:18:34.977Z,14.75
2023-05-10T09:23:37.786Z,14.79
2023-05-10T09:28:54.366Z,14.35
2023-05-10T09:33:57.668Z,13.70
2023-05-10T09:39:00.436Z,12.51
2023-05-10T09:44:04.688Z,13.15
2023-05-10T09:49:07.795Z,13.62
2023-05-10T09:54:12.127Z,13.88
2023-05-10T09:59:16.359Z,14.26
2023-05-10T10:04:19.377Z,14.99
2023-05-10T10:09:22.203Z,15.66
2023-05-10T10:14:26.809Z,16.00
2023-05-10T10:19:30.417Z,15.88
2023-05-10T10:24:33.254Z,16.53
2023-05-10T10:29:43.169Z,17.29
2023-05-10T10:34:46.240Z,16.42
2023-05-10T10:39:50.663Z,16.69
2023-05-10T10:45:14.572Z,17.15
2023-05-10T10:50:17.995Z,17.63
2023-05-10T10:55:24.206Z,17.68
2023-05-10T11:00:33.310Z,17.56
2023-05-10T11:05:39.201Z,17.96
2023-05-10T11:10:52.862Z,18.93
2023-05-10T11:15:58.015Z,19.05
2023-05-10T11:21:03.806Z,18.20
2023-05-10T11:26:10.346Z,19.01
2023-05-10T11:31:15.713Z,18.28
2023-05-10T11:36:20.712Z,19.41
2023-05-10T11:41:24.925Z,18.87
2023-05-10T11:46:30.472Z,20.03
2023-05-10T11:51:36.633Z,21.32
2023-05-10T11:56:39.711Z,21.13
2023-05-10T12:01:44.054Z,19.17
2023-05-10T12:06:47.517Z,18.23
2023-05-10T12:11:50.403Z,18.23
2023-05-10T12:16:54.655Z,18.62
2023-05-10T12:21:57.443Z,18.51
2023-05-10T12:27:00.285Z,18.30
2023-05-10T12:32:04.936Z,17.36
2023-05-10T12:37:08.075Z,17.31
2023-05-10T12:42:11.514Z,17.52
2023-05-10T12:47:15.713Z,18.15
2023-05-10T12:52:18.517Z,19.76
2023-05-10T12:57:22.391Z,19.35
2023-05-10T13:02:26.664Z,19.20
2023-05-10T13:07:29.492Z,19.61
2023-05-10T13:12:32.290Z,19.95
2023-05-10T13:17:36.525Z,20.49
2023-05-10T13:22:40.722Z,21.13
2023-05-10T13:27:43.738Z,21.21
2023-05-10T13:32:47.955Z,21.26
2023-05-10T13:37:50.825Z,20.58
2023-05-10T13:42:53.996Z,18.94
2023-05-10T13:47:58.274Z,17.92
2023-05-10T13:53:01.157Z,17.23
2023-05-10T13:58:03.974Z,15.00
2023-05-10T14:03:10.248Z,15.45
2023-05-10T14:08:14.145Z,15.14
2023-05-10T14:13:17.247Z,14.99
2023-05-10T14:18:21.546Z,14.76
2023-05-10T14:23:25.948Z,14.23
2023-05-10T14:28:28.942Z,14.45
2023-05-10T14:33:33.115Z,14.44
2023-05-10T14:38:35.925Z,14.61
2023-05-10T14:43:38.650Z,14.48
2023-05-10T14:48:42.895Z,14.55
2023-05-10T14:53:45.696Z,14.79
2023-05-10T14:58:48.446Z,14.90
2023-05-10T15:03:52.784Z,15.09
2023-05-10T15:08:56.243Z,15.55
2023-05-10T15:13:59.032Z,15.88
2023-05-10T15:19:03.525Z,15.96
2023-05-10T15:24:06.801Z,16.07
2023-05-10T15:29:09.624Z,16.09
2023-05-10T15:34:13.744Z,16.13
2023-05-10T15:39:16.407Z,16.09
2023-05-10T15:44:19.486Z,16.32
2023-05-10T15:49:23.662Z,16.39
2023-05-10T15:54:26.818Z,16.72
2023-05-10T15:59:29.671Z,15.89
2023-05-10T16:04:33.800Z,15.87
2023-05-10T16:09:36.591Z,15.77
2023-05-10T16:14:39.426Z,15.70
2023-05-10T16:19:43.638Z,15.39
2023-05-10T16:24:46.670Z,15.46
2023-05-10T16:29:49.646Z,15.41
2023-05-10T16:34:54.272Z,15.22
2023-05-10T16:39:57.041Z,14.95
2023-05-10T16:45:07.127Z,14.83
2023-05-10T16:50:11.851Z,14.74
2023-05-10T16:55:14.834Z,14.79
2023-05-10T17:00:20.580Z,14.36
2023-05-10T17:05:24.837Z,13.86
2023-05-10T17:10:27.664Z,13.35
2023-05-10T17:15:30.704Z,13.20
2023-05-10T17:20:35.001Z,13.15
2023-05-10T17:25:37.890Z,13.18
2023-05-10T17:30:40.718Z,13.30
2023-05-10T17:35:47.369Z,13.35
2023-05-10T17:40:50.145Z,13.14
2023-05-10T17:45:53.008Z,13.12
2023-05-10T17:50:57.420Z,13.15
2023-05-10T17:56:01.538Z,13.07
2023-05-10T18:01:04.399Z,13.15
2023-05-10T18:06:08.666Z,13.08
2023-05-10T18:11:11.511Z,13.16
2023-05-10T18:16:14.279Z,13.05
2023-05-10T18:21:18.860Z,13.05
2023-05-10T18:26:21.681Z,13.08
2023-05-10T18:31:24.786Z,13.17
2023-05-10T18:36:29.494Z,13.16
2023-05-10T18:41:32.282Z,13.02
2023-05-10T18:46:35.652Z,13.03
2023-05-10T18:51:40.103Z,13.04
2023-05-10T18:56:45.058Z,13.15
2023-05-10T19:01:49.560Z,13.18
2023-05-10T19:06:55.852Z,13.11
2023-05-10T19:11:58.762Z,12.88
2023-05-10T19:17:01.553Z,13.29
2023-05-10T19:22:05.770Z,13.27
2023-05-10T19:27:09.093Z,13.29
2023-05-10T19:32:12.084Z,13.32
2023-05-10T19:37:16.261Z,13.23
2023-05-10T19:42:19.036Z,13.35
2023-05-10T19:47:21.824Z,13.42
2023-05-10T19:52:26.023Z,13.48
2023-05-10T19:57:28.871Z,13.53
2023-05-10T20:02:31.647Z,13.57
2023-05-10T20:07:35.811Z,13.56
2023-05-10T20:12:38.683Z,13.55
2023-05-10T20:17:41.666Z,13.49
2023-05-10T20:22:45.857Z,13.46
2023-05-10T20:27:50.748Z,13.45
2023-05-10T20:32:53.592Z,13.42
2023-05-10T20:37:57.790Z,13.47
2023-05-10T20:43:00.602Z,13.46
2023-05-10T20:48:03.677Z,13.45
2023-05-10T20:53:07.821Z,13.44
2023-05-10T20:58:10.585Z,13.41
2023-05-10T21:03:15.096Z,13.33
2023-05-10T21:08:19.332Z,13.33
2023-05-10T21:13:22.175Z,13.30
2023-05-10T21:18:25.185Z,12.98
2023-05-10T21:23:29.392Z,12.87
2023-05-10T21:28:32.160Z,12.83
2023-05-10T21:33:35.297Z,12.83
2023-05-10T21:38:39.431Z,12.82
2023-05-10T21:43:42.219Z,12.91
2023-05-10T21:48:45.024Z,12.92
2023-05-10T21:53:49.415Z,12.95
2023-05-10T21:58:52.172Z,12.89
2023-05-10T22:03:54.944Z,12.56
2023-05-10T22:08:59.065Z,12.50
2023-05-10T22:14:01.815Z,12.51
2023-05-10T22:19:04.724Z,12.53
2023-05-10T22:24:09.071Z,12.54
2023-05-10T22:29:11.934Z,12.62
2023-05-10T22:34:14.707Z,12.59
2023-05-10T22:39:18.819Z,12.49
2023-05-10T22:44:21.919Z,12.48
2023-05-10T22:49:24.708Z,12.29
2023-05-10T22:54:28.888Z,12.49
2023-05-10T22:59:31.865Z,12.41
2023-05-10T23:04:34.699Z,12.66
2023-05-10T23:09:38.921Z,12.61
2023-05-10T23:14:42.340Z,12.83
2023-05-10T23:19:45.162Z,12.92
2023-05-10T23:24:49.254Z,12.95
2023-05-10T23:29:55.450Z,13.00
2023-05-10T23:34:58.367Z,12.95
2023-05-10T23:40:03.069Z,12.90
2023-05-10T23:45:06.644Z,12.98
2023-05-10T23:50:10.482Z,13.04
2023-05-10T23:55:14.841Z,13.04
